sensor_id;sensor_type;location;lat;lon;timestamp;pressure;altitude;pressure_sealevel;temperature;humidity
52935;BME280;38802;50.198;19.796;2023-03-20T00:02:22;96144.10;;;7.28;51.25
52935;BME280;38802;50.198;19.796;2023-03-20T00:04:51;96140.19;;;7.28;51.29
52935;BME280;38802;50.198;19.796;2023-03-20T00:07:19;96138.69;;;7.26;51.55
52935;BME280;38802;50.198;19.796;2023-03-20T00:09:47;96141.19;;;7.25;51.54
52935;BME280;38802;50.198;19.796;2023-03-20T00:12:22;96140.19;;;7.25;51.45
52935;BME280;38802;50.198;19.796;2023-03-20T00:14:50;96139.58;;;7.24;51.48
52935;BME280;38802;50.198;19.796;2023-03-20T00:17:19;96134.59;;;7.23;51.47
52935;BME280;38802;50.198;19.796;2023-03-20T00:19:48;96138.58;;;7.23;52.00
52935;BME280;38802;50.198;19.796;2023-03-20T00:22:16;96137.63;;;7.22;52.09
52935;BME280;38802;50.198;19.796;2023-03-20T00:24:44;96137.48;;;7.21;52.15
52935;BME280;38802;50.198;19.796;2023-03-20T00:27:14;96134.57;;;7.21;51.88
52935;BME280;38802;50.198;19.796;2023-03-20T00:29:43;96129.20;;;7.19;51.97
52935;BME280;38802;50.198;19.796;2023-03-20T00:32:12;96127.38;;;7.18;52.17
52935;BME280;38802;50.198;19.796;2023-03-20T00:34:40;96126.59;;;7.17;52.12
52935;BME280;38802;50.198;19.796;2023-03-20T00:37:09;96126.84;;;7.16;52.23
52935;BME280;38802;50.198;19.796;2023-03-20T00:39:40;96124.14;;;7.15;52.18
52935;BME280;38802;50.198;19.796;2023-03-20T00:42:16;96120.95;;;7.14;52.20
52935;BME280;38802;50.198;19.796;2023-03-20T00:44:51;96118.88;;;7.11;52.31
52935;BME280;38802;50.198;19.796;2023-03-20T00:47:24;96121.42;;;7.12;52.38
52935;BME280;38802;50.198;19.796;2023-03-20T00:49:53;96119.11;;;7.10;52.38
52935;BME280;38802;50.198;19.796;2023-03-20T00:52:22;96116.20;;;7.08;52.38
52935;BME280;38802;50.198;19.796;2023-03-20T00:54:51;96113.58;;;7.06;52.55
52935;BME280;38802;50.198;19.796;2023-03-20T00:57:25;96115.98;;;7.06;52.49
52935;BME280;38802;50.198;19.796;2023-03-20T00:59:58;96115.41;;;7.07;52.72
52935;BME280;38802;50.198;19.796;2023-03-20T01:02:28;96113.17;;;7.06;52.78
52935;BME280;38802;50.198;19.796;2023-03-20T01:04:59;96113.09;;;7.05;52.63
52935;BME280;38802;50.198;19.796;2023-03-20T01:07:28;96116.77;;;7.04;52.65
52935;BME280;38802;50.198;19.796;2023-03-20T01:09:56;96115.56;;;7.04;52.83
52935;BME280;38802;50.198;19.796;2023-03-20T01:12:24;96114.77;;;7.03;52.78
52935;BME280;38802;50.198;19.796;2023-03-20T01:14:55;96112.93;;;7.03;52.88
52935;BME280;38802;50.198;19.796;2023-03-20T01:17:25;96110.37;;;7.02;52.82
52935;BME280;38802;50.198;19.796;2023-03-20T01:19:53;96113.27;;;7.03;52.96
52935;BME280;38802;50.198;19.796;2023-03-20T01:22:23;96110.70;;;7.02;53.13
52935;BME280;38802;50.198;19.796;2023-03-20T01:24:51;96109.69;;;7.04;53.24
52935;BME280;38802;50.198;19.796;2023-03-20T01:27:19;96111.32;;;7.03;53.02
52935;BME280;38802;50.198;19.796;2023-03-20T01:29:48;96113.00;;;7.04;53.24
52935;BME280;38802;50.198;19.796;2023-03-20T01:32:18;96115.09;;;7.04;52.99
52935;BME280;38802;50.198;19.796;2023-03-20T01:34:50;96110.45;;;7.06;53.35
52935;BME280;38802;50.198;19.796;2023-03-20T01:37:26;96111.63;;;7.04;53.21
52935;BME280;38802;50.198;19.796;2023-03-20T01:39:57;96112.45;;;7.02;53.21
52935;BME280;38802;50.198;19.796;2023-03-20T01:42:26;96111.85;;;7.01;53.11
52935;BME280;38802;50.198;19.796;2023-03-20T01:44:56;96109.46;;;7.00;53.15
52935;BME280;38802;50.198;19.796;2023-03-20T01:47:24;96109.31;;;7.00;53.22
52935;BME280;38802;50.198;19.796;2023-03-20T01:50:22;96113.23;;;6.98;53.22
52935;BME280;38802;50.198;19.796;2023-03-20T01:53:12;96109.75;;;6.99;53.11
52935;BME280;38802;50.198;19.796;2023-03-20T01:55:47;96111.77;;;7.00;53.17
52935;BME280;38802;50.198;19.796;2023-03-20T01:58:33;96109.87;;;7.02;53.06
52935;BME280;38802;50.198;19.796;2023-03-20T02:01:05;96112.09;;;7.02;53.19
52935;BME280;38802;50.198;19.796;2023-03-20T02:03:36;96112.73;;;7.03;53.32
52935;BME280;38802;50.198;19.796;2023-03-20T02:06:05;96117.56;;;7.03;53.27
52935;BME280;38802;50.198;19.796;2023-03-20T02:08:57;96116.34;;;7.03;53.29
52935;BME280;38802;50.198;19.796;2023-03-20T02:11:25;96113.70;;;7.04;53.21
52935;BME280;38802;50.198;19.796;2023-03-20T02:13:56;96114.32;;;7.05;53.37
52935;BME280;38802;50.198;19.796;2023-03-20T02:16:31;96110.69;;;7.05;53.37
52935;BME280;38802;50.198;19.796;2023-03-20T02:19:25;96111.85;;;7.06;53.32
52935;BME280;38802;50.198;19.796;2023-03-20T02:40:34;96109.26;;;7.13;53.42
52935;BME280;38802;50.198;19.796;2023-03-20T02:43:35;96107.71;;;7.15;53.44
52935;BME280;38802;50.198;19.796;2023-03-20T02:51:43;96109.79;;;7.15;53.44
52935;BME280;38802;50.198;19.796;2023-03-20T02:54:32;96105.95;;;7.16;53.30
52935;BME280;38802;50.198;19.796;2023-03-20T02:57:07;96102.04;;;7.15;53.41
52935;BME280;38802;50.198;19.796;2023-03-20T02:59:50;96102.20;;;7.15;53.38
52935;BME280;38802;50.198;19.796;2023-03-20T03:02:48;96099.50;;;7.16;53.45
52935;BME280;38802;50.198;19.796;2023-03-20T03:05:24;96100.55;;;7.18;53.27
52935;BME280;38802;50.198;19.796;2023-03-20T03:07:56;96094.33;;;7.18;53.51
52935;BME280;38802;50.198;19.796;2023-03-20T03:10:35;96100.55;;;7.19;53.46
52935;BME280;38802;50.198;19.796;2023-03-20T03:13:11;96097.77;;;7.16;53.41
52935;BME280;38802;50.198;19.796;2023-03-20T03:15:44;96102.52;;;7.15;53.62
52935;BME280;38802;50.198;19.796;2023-03-20T03:18:18;96099.69;;;7.16;53.56
52935;BME280;38802;50.198;19.796;2023-03-20T03:20:49;96096.82;;;7.18;53.51
52935;BME280;38802;50.198;19.796;2023-03-20T03:23:26;96091.13;;;7.20;53.56
52935;BME280;38802;50.198;19.796;2023-03-20T03:25:57;96094.99;;;7.19;53.53
52935;BME280;38802;50.198;19.796;2023-03-20T03:41:23;96087.71;;;7.19;53.72
52935;BME280;38802;50.198;19.796;2023-03-20T03:47:09;96083.43;;;7.16;53.53
52935;BME280;38802;50.198;19.796;2023-03-20T03:49:43;96079.60;;;7.14;53.61
52935;BME280;38802;50.198;19.796;2023-03-20T03:52:18;96082.30;;;7.13;53.52
52935;BME280;38802;50.198;19.796;2023-03-20T03:55:02;96083.30;;;7.13;53.52
52935;BME280;38802;50.198;19.796;2023-03-20T03:57:56;96083.11;;;7.14;53.63
52935;BME280;38802;50.198;19.796;2023-03-20T04:00:26;96078.42;;;7.14;53.69
52935;BME280;38802;50.198;19.796;2023-03-20T04:02:57;96077.82;;;7.15;53.73
52935;BME280;38802;50.198;19.796;2023-03-20T04:05:28;96080.03;;;7.15;53.65
52935;BME280;38802;50.198;19.796;2023-03-20T04:08:00;96080.90;;;7.16;53.67
52935;BME280;38802;50.198;19.796;2023-03-20T04:10:28;96082.39;;;7.16;53.54
52935;BME280;38802;50.198;19.796;2023-03-20T04:12:56;96080.64;;;7.19;53.72
52935;BME280;38802;50.198;19.796;2023-03-20T04:15:24;96080.15;;;7.19;53.73
52935;BME280;38802;50.198;19.796;2023-03-20T04:17:55;96083.88;;;7.20;53.74
52935;BME280;38802;50.198;19.796;2023-03-20T04:20:23;96085.47;;;7.21;53.86
52935;BME280;38802;50.198;19.796;2023-03-20T04:22:51;96085.96;;;7.22;53.82
52935;BME280;38802;50.198;19.796;2023-03-20T04:25:24;96083.09;;;7.21;53.77
52935;BME280;38802;50.198;19.796;2023-03-20T04:27:54;96084.29;;;7.21;53.76
52935;BME280;38802;50.198;19.796;2023-03-20T04:30:55;96086.55;;;7.21;53.73
52935;BME280;38802;50.198;19.796;2023-03-20T04:33:41;96082.53;;;7.19;53.98
52935;BME280;38802;50.198;19.796;2023-03-20T04:36:21;96087.39;;;7.17;53.86
52935;BME280;38802;50.198;19.796;2023-03-20T04:38:52;96085.87;;;7.14;53.98
52935;BME280;38802;50.198;19.796;2023-03-20T04:41:23;96086.39;;;7.14;54.01
52935;BME280;38802;50.198;19.796;2023-03-20T04:43:54;96092.11;;;7.11;54.04
52935;BME280;38802;50.198;19.796;2023-03-20T04:46:23;96089.80;;;7.09;54.12
52935;BME280;38802;50.198;19.796;2023-03-20T04:48:52;96089.65;;;7.12;54.12
52935;BME280;38802;50.198;19.796;2023-03-20T04:51:20;96090.55;;;7.09;53.93
52935;BME280;38802;50.198;19.796;2023-03-20T04:53:50;96095.69;;;7.09;54.19
52935;BME280;38802;50.198;19.796;2023-03-20T04:56:18;96096.87;;;7.10;54.04
52935;BME280;38802;50.198;19.796;2023-03-20T04:58:48;96099.02;;;7.09;54.26
52935;BME280;38802;50.198;19.796;2023-03-20T05:01:18;96100.00;;;7.09;54.05
52935;BME280;38802;50.198;19.796;2023-03-20T05:03:47;96106.17;;;7.10;54.14
52935;BME280;38802;50.198;19.796;2023-03-20T05:06:15;96104.74;;;7.11;54.09
52935;BME280;38802;50.198;19.796;2023-03-20T05:08:44;96104.64;;;7.12;54.23
52935;BME280;38802;50.198;19.796;2023-03-20T05:11:12;96106.83;;;7.13;54.29
52935;BME280;38802;50.198;19.796;2023-03-20T05:13:59;96106.83;;;7.13;54.17
52935;BME280;38802;50.198;19.796;2023-03-20T05:16:42;96104.63;;;7.12;54.16
52935;BME280;38802;50.198;19.796;2023-03-20T05:19:39;96106.80;;;7.13;54.28
52935;BME280;38802;50.198;19.796;2023-03-20T05:22:07;96105.29;;;7.13;54.18
52935;BME280;38802;50.198;19.796;2023-03-20T05:24:50;96109.48;;;7.12;54.30
52935;BME280;38802;50.198;19.796;2023-03-20T05:27:43;96107.98;;;7.11;54.36
52935;BME280;38802;50.198;19.796;2023-03-20T05:30:34;96109.27;;;7.10;54.42
52935;BME280;38802;50.198;19.796;2023-03-20T05:33:25;96108.89;;;7.08;54.64
52935;BME280;38802;50.198;19.796;2023-03-20T05:36:05;96110.50;;;7.08;54.54
52935;BME280;38802;50.198;19.796;2023-03-20T05:38:49;96109.56;;;7.09;54.63
52935;BME280;38802;50.198;19.796;2023-03-20T05:41:36;96108.13;;;7.09;54.64
52935;BME280;38802;50.198;19.796;2023-03-20T05:44:19;96112.67;;;7.09;54.67
52935;BME280;38802;50.198;19.796;2023-03-20T05:47:02;96110.80;;;7.06;54.69
52935;BME280;38802;50.198;19.796;2023-03-20T05:49:59;96110.51;;;7.05;54.66
52935;BME280;38802;50.198;19.796;2023-03-20T05:52:47;96114.27;;;7.03;54.83
52935;BME280;38802;50.198;19.796;2023-03-20T05:55:28;96114.33;;;7.02;54.98
52935;BME280;38802;50.198;19.796;2023-03-20T05:58:19;96119.00;;;7.00;54.87
52935;BME280;38802;50.198;19.796;2023-03-20T06:01:00;96116.44;;;6.97;55.05
52935;BME280;38802;50.198;19.796;2023-03-20T06:03:51;96120.73;;;6.95;55.04
52935;BME280;38802;50.198;19.796;2023-03-20T06:06:33;96118.38;;;6.94;55.07
52935;BME280;38802;50.198;19.796;2023-03-20T06:09:05;96118.81;;;6.95;55.36
52935;BME280;38802;50.198;19.796;2023-03-20T06:11:33;96121.36;;;6.96;55.17
52935;BME280;38802;50.198;19.796;2023-03-20T06:14:05;96119.95;;;7.01;55.21
52935;BME280;38802;50.198;19.796;2023-03-20T06:16:37;96118.17;;;7.09;55.42
52935;BME280;38802;50.198;19.796;2023-03-20T06:19:05;96122.97;;;7.14;55.41
52935;BME280;38802;50.198;19.796;2023-03-20T06:21:33;96121.21;;;7.20;55.39
52935;BME280;38802;50.198;19.796;2023-03-20T06:24:02;96126.39;;;7.24;55.43
52935;BME280;38802;50.198;19.796;2023-03-20T06:26:31;96127.63;;;7.32;55.64
52935;BME280;38802;50.198;19.796;2023-03-20T06:29:03;96129.30;;;7.42;55.67
52935;BME280;38802;50.198;19.796;2023-03-20T06:31:31;96128.13;;;7.56;55.57
52935;BME280;38802;50.198;19.796;2023-03-20T06:34:00;96123.29;;;7.68;55.55
52935;BME280;38802;50.198;19.796;2023-03-20T06:36:30;96125.29;;;7.78;55.54
52935;BME280;38802;50.198;19.796;2023-03-20T06:39:03;96124.33;;;7.92;55.65
52935;BME280;38802;50.198;19.796;2023-03-20T06:41:31;96122.08;;;8.06;55.71
52935;BME280;38802;50.198;19.796;2023-03-20T06:44:05;96120.56;;;8.22;55.80
52935;BME280;38802;50.198;19.796;2023-03-20T06:46:52;96122.45;;;8.38;55.70
52935;BME280;38802;50.198;19.796;2023-03-20T06:49:20;96125.88;;;8.55;55.89
52935;BME280;38802;50.198;19.796;2023-03-20T06:51:48;96126.92;;;8.73;56.14
52935;BME280;38802;50.198;19.796;2023-03-20T06:54:23;96129.13;;;8.94;56.01
52935;BME280;38802;50.198;19.796;2023-03-20T06:56:51;96125.92;;;9.15;56.19
52935;BME280;38802;50.198;19.796;2023-03-20T06:59:21;96123.15;;;9.30;56.13
52935;BME280;38802;50.198;19.796;2023-03-20T07:01:49;96123.86;;;9.36;56.22
52935;BME280;38802;50.198;19.796;2023-03-20T07:04:19;96124.18;;;9.43;56.53
52935;BME280;38802;50.198;19.796;2023-03-20T07:06:50;96124.48;;;9.46;56.51
52935;BME280;38802;50.198;19.796;2023-03-20T07:09:18;96126.71;;;9.51;57.00
52935;BME280;38802;50.198;19.796;2023-03-20T07:11:48;96131.29;;;9.54;57.21
52935;BME280;38802;50.198;19.796;2023-03-20T07:14:17;96132.00;;;9.57;57.14
52935;BME280;38802;50.198;19.796;2023-03-20T07:17:08;96133.55;;;9.54;57.26
52935;BME280;38802;50.198;19.796;2023-03-20T07:19:37;96134.26;;;9.52;57.31
52935;BME280;38802;50.198;19.796;2023-03-20T07:22:24;96135.11;;;9.54;57.77
52935;BME280;38802;50.198;19.796;2023-03-20T07:25:02;96138.46;;;9.53;57.61
52935;BME280;38802;50.198;19.796;2023-03-20T07:27:30;96137.55;;;9.59;57.73
52935;BME280;38802;50.198;19.796;2023-03-20T07:29:58;96136.07;;;9.64;58.12
52935;BME280;38802;50.198;19.796;2023-03-20T07:32:27;96138.45;;;9.73;58.24
52935;BME280;38802;50.198;19.796;2023-03-20T07:34:55;96134.55;;;9.79;58.05
52935;BME280;38802;50.198;19.796;2023-03-20T07:37:23;96130.92;;;9.87;58.11
52935;BME280;38802;50.198;19.796;2023-03-20T07:39:57;96132.02;;;9.95;58.06
52935;BME280;38802;50.198;19.796;2023-03-20T07:42:43;96133.80;;;10.07;58.34
52935;BME280;38802;50.198;19.796;2023-03-20T07:45:13;96136.65;;;10.13;58.34
52935;BME280;38802;50.198;19.796;2023-03-20T07:47:44;96137.48;;;10.17;57.97
52935;BME280;38802;50.198;19.796;2023-03-20T07:50:14;96136.02;;;10.23;57.91
52935;BME280;38802;50.198;19.796;2023-03-20T07:52:47;96138.03;;;10.30;58.17
52935;BME280;38802;50.198;19.796;2023-03-20T07:55:15;96140.44;;;10.38;58.03
52935;BME280;38802;50.198;19.796;2023-03-20T07:57:47;96142.41;;;10.44;57.81
52935;BME280;38802;50.198;19.796;2023-03-20T08:00:17;96145.23;;;10.48;57.61
52935;BME280;38802;50.198;19.796;2023-03-20T08:02:45;96146.94;;;10.44;57.85
52935;BME280;38802;50.198;19.796;2023-03-20T08:05:14;96148.29;;;10.38;57.71
52935;BME280;38802;50.198;19.796;2023-03-20T08:07:42;96145.09;;;10.39;57.78
52935;BME280;38802;50.198;19.796;2023-03-20T08:10:10;96146.80;;;10.46;58.09
52935;BME280;38802;50.198;19.796;2023-03-20T08:12:38;96145.18;;;10.53;58.22
52935;BME280;38802;50.198;19.796;2023-03-20T08:15:07;96141.15;;;10.55;58.31
52935;BME280;38802;50.198;19.796;2023-03-20T08:17:35;96142.02;;;10.57;58.27
52935;BME280;38802;50.198;19.796;2023-03-20T08:20:03;96145.71;;;10.61;58.39
52935;BME280;38802;50.198;19.796;2023-03-20T08:22:31;96152.44;;;10.57;58.42
52935;BME280;38802;50.198;19.796;2023-03-20T08:24:59;96155.79;;;10.62;58.23
52935;BME280;38802;50.198;19.796;2023-03-20T08:27:27;96153.77;;;10.74;58.25
52935;BME280;38802;50.198;19.796;2023-03-20T08:29:55;96150.74;;;10.87;58.32
52935;BME280;38802;50.198;19.796;2023-03-20T08:32:23;96154.09;;;10.95;58.37
52935;BME280;38802;50.198;19.796;2023-03-20T08:34:53;96156.00;;;10.99;58.51
52935;BME280;38802;50.198;19.796;2023-03-20T08:37:23;96153.55;;;11.10;58.40
52935;BME280;38802;50.198;19.796;2023-03-20T08:39:52;96158.24;;;11.20;58.41
52935;BME280;38802;50.198;19.796;2023-03-20T08:42:19;96158.63;;;11.27;58.85
52935;BME280;38802;50.198;19.796;2023-03-20T08:44:48;96156.90;;;11.31;58.69
52935;BME280;38802;50.198;19.796;2023-03-20T08:47:16;96161.21;;;11.30;58.63
52935;BME280;38802;50.198;19.796;2023-03-20T08:49:44;96162.71;;;11.35;58.94
52935;BME280;38802;50.198;19.796;2023-03-20T08:52:13;96164.11;;;11.35;58.64
52935;BME280;38802;50.198;19.796;2023-03-20T08:54:41;96159.55;;;11.45;58.84
52935;BME280;38802;50.198;19.796;2023-03-20T08:57:09;96159.65;;;11.54;58.54
52935;BME280;38802;50.198;19.796;2023-03-20T08:59:36;96159.02;;;11.53;58.53
52935;BME280;38802;50.198;19.796;2023-03-20T09:02:05;96160.30;;;11.50;58.67
52935;BME280;38802;50.198;19.796;2023-03-20T09:04:33;96160.61;;;11.52;58.85
52935;BME280;38802;50.198;19.796;2023-03-20T09:07:02;96159.84;;;11.63;58.94
52935;BME280;38802;50.198;19.796;2023-03-20T09:09:30;96155.73;;;11.75;58.99
52935;BME280;38802;50.198;19.796;2023-03-20T09:11:59;96155.64;;;11.84;59.26
52935;BME280;38802;50.198;19.796;2023-03-20T09:14:28;96149.70;;;12.03;59.11
52935;BME280;38802;50.198;19.796;2023-03-20T09:16:57;96148.44;;;12.18;59.06
52935;BME280;38802;50.198;19.796;2023-03-20T09:19:45;96152.02;;;12.22;58.56
52935;BME280;38802;50.198;19.796;2023-03-20T09:22:14;96151.61;;;12.11;58.60
52935;BME280;38802;50.198;19.796;2023-03-20T09:24:43;96157.63;;;12.01;58.69
52935;BME280;38802;50.198;19.796;2023-03-20T09:27:11;96157.73;;;11.92;58.68
52935;BME280;38802;50.198;19.796;2023-03-20T09:29:43;96161.33;;;11.86;58.78
52935;BME280;38802;50.198;19.796;2023-03-20T09:32:12;96158.90;;;11.81;58.67
52935;BME280;38802;50.198;19.796;2023-03-20T09:34:40;96161.48;;;11.77;58.71
52935;BME280;38802;50.198;19.796;2023-03-20T09:37:08;96160.47;;;11.81;58.97
52935;BME280;38802;50.198;19.796;2023-03-20T09:39:36;96157.23;;;11.87;59.07
52935;BME280;38802;50.198;19.796;2023-03-20T09:45:00;96152.67;;;12.07;58.89
52935;BME280;38802;50.198;19.796;2023-03-20T09:47:45;96149.34;;;12.11;58.70
52935;BME280;38802;50.198;19.796;2023-03-20T09:53:14;96152.94;;;12.28;58.73
52935;BME280;38802;50.198;19.796;2023-03-20T09:55:45;96155.59;;;12.46;58.69
52935;BME280;38802;50.198;19.796;2023-03-20T09:58:20;96156.73;;;12.61;58.53
52935;BME280;38802;50.198;19.796;2023-03-20T10:00:50;96152.28;;;12.60;57.89
52935;BME280;38802;50.198;19.796;2023-03-20T10:03:25;96156.92;;;12.54;57.72
52935;BME280;38802;50.198;19.796;2023-03-20T10:05:58;96160.38;;;12.54;57.64
52935;BME280;38802;50.198;19.796;2023-03-20T10:08:32;96161.48;;;12.64;57.53
52935;BME280;38802;50.198;19.796;2023-03-20T10:11:23;96160.17;;;12.69;57.37
52935;BME280;38802;50.198;19.796;2023-03-20T10:19:29;96156.11;;;13.12;57.17
52935;BME280;38802;50.198;19.796;2023-03-20T10:22:14;96150.33;;;13.14;56.90
52935;BME280;38802;50.198;19.796;2023-03-20T10:24:46;96152.22;;;13.15;57.03
52935;BME280;38802;50.198;19.796;2023-03-20T10:27:32;96155.29;;;13.06;56.77
52935;BME280;38802;50.198;19.796;2023-03-20T10:35:41;96153.16;;;12.94;57.25
52935;BME280;38802;50.198;19.796;2023-03-20T10:38:18;96156.77;;;12.94;57.17
52935;BME280;38802;50.198;19.796;2023-03-20T10:40:51;96156.64;;;12.88;57.25
52935;BME280;38802;50.198;19.796;2023-03-20T10:43:33;96157.81;;;12.75;57.66
52935;BME280;38802;50.198;19.796;2023-03-20T10:46:29;96157.39;;;12.59;57.93
52935;BME280;38802;50.198;19.796;2023-03-20T10:49:06;96156.46;;;12.48;58.41
52935;BME280;38802;50.198;19.796;2023-03-20T10:51:59;96153.97;;;12.45;58.82
52935;BME280;38802;50.198;19.796;2023-03-20T10:57:02;96153.56;;;12.38;59.14
52935;BME280;38802;50.198;19.796;2023-03-20T10:59:39;96153.23;;;12.32;59.39
52935;BME280;38802;50.198;19.796;2023-03-20T11:02:10;96153.95;;;12.26;59.51
52935;BME280;38802;50.198;19.796;2023-03-20T11:04:39;96150.11;;;12.24;59.60
52935;BME280;38802;50.198;19.796;2023-03-20T11:10:07;96149.08;;;12.14;59.85
52935;BME280;38802;50.198;19.796;2023-03-20T11:12:41;96145.52;;;12.09;60.02
52935;BME280;38802;50.198;19.796;2023-03-20T11:15:26;96146.70;;;12.08;60.04
52935;BME280;38802;50.198;19.796;2023-03-20T11:18:03;96146.71;;;12.02;59.89
52935;BME280;38802;50.198;19.796;2023-03-20T11:20:34;96147.05;;;12.04;60.29
52935;BME280;38802;50.198;19.796;2023-03-20T11:23:06;96144.32;;;12.05;60.44
52935;BME280;38802;50.198;19.796;2023-03-20T11:25:48;96140.66;;;12.03;60.37
52935;BME280;38802;50.198;19.796;2023-03-20T11:28:34;96136.86;;;12.09;60.64
52935;BME280;38802;50.198;19.796;2023-03-20T11:31:24;96139.74;;;12.18;60.97
52935;BME280;38802;50.198;19.796;2023-03-20T11:36:55;96140.70;;;12.34;61.16
52935;BME280;38802;50.198;19.796;2023-03-20T11:39:37;96138.52;;;12.29;61.02
52935;BME280;38802;50.198;19.796;2023-03-20T11:42:22;96137.29;;;12.25;61.11
52935;BME280;38802;50.198;19.796;2023-03-20T11:45:19;96139.33;;;12.24;61.30
52935;BME280;38802;50.198;19.796;2023-03-20T11:47:50;96138.48;;;12.30;61.26
52935;BME280;38802;50.198;19.796;2023-03-20T11:50:34;96134.83;;;12.37;61.40
52935;BME280;38802;50.198;19.796;2023-03-20T11:53:31;96132.89;;;12.34;61.56
52935;BME280;38802;50.198;19.796;2023-03-20T12:01:41;96126.73;;;12.13;61.96
52935;BME280;38802;50.198;19.796;2023-03-20T12:04:17;96128.11;;;12.23;62.16
52935;BME280;38802;50.198;19.796;2023-03-20T12:06:56;96122.66;;;12.43;62.74
52935;BME280;38802;50.198;19.796;2023-03-20T12:12:04;96120.55;;;12.56;62.28
52935;BME280;38802;50.198;19.796;2023-03-20T12:14:53;96116.80;;;12.67;62.53
52935;BME280;38802;50.198;19.796;2023-03-20T12:28:13;96109.83;;;12.78;62.11
52935;BME280;38802;50.198;19.796;2023-03-20T12:31:00;96108.59;;;12.74;62.24
52935;BME280;38802;50.198;19.796;2023-03-20T12:36:17;96108.08;;;12.63;62.44
52935;BME280;38802;50.198;19.796;2023-03-20T12:38:45;96105.47;;;12.53;62.66
52935;BME280;38802;50.198;19.796;2023-03-20T12:41:29;96106.55;;;12.43;62.64
52935;BME280;38802;50.198;19.796;2023-03-20T12:49:43;96103.80;;;12.47;63.06
52935;BME280;38802;50.198;19.796;2023-03-20T12:52:25;96104.60;;;12.49;62.98
52935;BME280;38802;50.198;19.796;2023-03-20T12:58:38;96105.66;;;12.42;62.90
52935;BME280;38802;50.198;19.796;2023-03-20T13:07:02;96104.42;;;12.15;63.23
52935;BME280;38802;50.198;19.796;2023-03-20T13:13:01;96106.80;;;11.97;63.66
52935;BME280;38802;50.198;19.796;2023-03-20T13:15:45;96103.64;;;11.89;63.78
52935;BME280;38802;50.198;19.796;2023-03-20T13:18:26;96102.98;;;11.87;64.11
52935;BME280;38802;50.198;19.796;2023-03-20T13:20:59;96098.08;;;11.83;64.37
52935;BME280;38802;50.198;19.796;2023-03-20T13:23:55;96099.92;;;11.84;64.78
52935;BME280;38802;50.198;19.796;2023-03-20T13:26:38;96099.48;;;11.77;64.61
52935;BME280;38802;50.198;19.796;2023-03-20T13:29:20;96098.64;;;11.77;64.78
52935;BME280;38802;50.198;19.796;2023-03-20T13:37:37;96099.09;;;11.83;65.36
52935;BME280;38802;50.198;19.796;2023-03-20T13:40:25;96095.17;;;11.81;65.59
52935;BME280;38802;50.198;19.796;2023-03-20T13:45:39;96095.30;;;11.81;65.44
52935;BME280;38802;50.198;19.796;2023-03-20T13:48:36;96096.74;;;11.87;65.69
52935;BME280;38802;50.198;19.796;2023-03-20T13:51:27;96093.88;;;11.85;65.68
52935;BME280;38802;50.198;19.796;2023-03-20T13:54:11;96092.88;;;11.81;65.95
52935;BME280;38802;50.198;19.796;2023-03-20T13:59:47;96096.55;;;11.67;66.31
52935;BME280;38802;50.198;19.796;2023-03-20T14:02:44;96098.45;;;11.55;66.60
52935;BME280;38802;50.198;19.796;2023-03-20T14:05:48;96096.60;;;11.45;66.76
52935;BME280;38802;50.198;19.796;2023-03-20T14:08:23;96101.38;;;11.36;66.86
52935;BME280;38802;50.198;19.796;2023-03-20T14:11:07;96101.05;;;11.32;67.33
52935;BME280;38802;50.198;19.796;2023-03-20T14:13:47;96100.42;;;11.24;67.52
52935;BME280;38802;50.198;19.796;2023-03-20T14:16:17;96098.66;;;11.23;67.78
52935;BME280;38802;50.198;19.796;2023-03-20T14:18:54;96094.73;;;11.20;68.38
52935;BME280;38802;50.198;19.796;2023-03-20T14:21:34;96094.38;;;11.14;68.32
52935;BME280;38802;50.198;19.796;2023-03-20T14:24:04;96093.34;;;11.12;68.77
52935;BME280;38802;50.198;19.796;2023-03-20T14:26:36;96097.12;;;11.09;68.54
52935;BME280;38802;50.198;19.796;2023-03-20T14:31:37;96101.30;;;11.11;69.55
52935;BME280;38802;50.198;19.796;2023-03-20T14:40:16;96102.24;;;11.08;70.39
52935;BME280;38802;50.198;19.796;2023-03-20T14:42:47;96101.66;;;11.05;70.49
52935;BME280;38802;50.198;19.796;2023-03-20T14:45:28;96102.15;;;11.01;70.09
52935;BME280;38802;50.198;19.796;2023-03-20T14:48:24;96096.49;;;11.02;69.74
52935;BME280;38802;50.198;19.796;2023-03-20T14:51:04;96099.73;;;11.07;70.02
52935;BME280;38802;50.198;19.796;2023-03-20T14:53:33;96098.99;;;11.11;70.72
52935;BME280;38802;50.198;19.796;2023-03-20T14:56:09;96095.79;;;11.10;70.52
52935;BME280;38802;50.198;19.796;2023-03-20T14:58:45;96096.87;;;11.06;70.29
52935;BME280;38802;50.198;19.796;2023-03-20T15:01:24;96093.11;;;11.07;70.66
52935;BME280;38802;50.198;19.796;2023-03-20T15:03:57;96094.09;;;11.04;70.44
52935;BME280;38802;50.198;19.796;2023-03-20T15:06:28;96095.23;;;11.02;70.59
52935;BME280;38802;50.198;19.796;2023-03-20T15:09:06;96093.42;;;11.01;70.69
52935;BME280;38802;50.198;19.796;2023-03-20T15:11:35;96098.72;;;10.94;70.94
52935;BME280;38802;50.198;19.796;2023-03-20T15:14:06;96095.12;;;10.82;71.41
52935;BME280;38802;50.198;19.796;2023-03-20T15:16:36;96094.19;;;10.72;71.64
52935;BME280;38802;50.198;19.796;2023-03-20T15:19:16;96094.05;;;10.65;71.93
52935;BME280;38802;50.198;19.796;2023-03-20T15:21:46;96093.58;;;10.59;71.93
52935;BME280;38802;50.198;19.796;2023-03-20T15:24:22;96092.41;;;10.58;72.44
52935;BME280;38802;50.198;19.796;2023-03-20T15:26:57;96095.23;;;10.58;72.58
52935;BME280;38802;50.198;19.796;2023-03-20T15:29:27;96095.27;;;10.59;72.87
52935;BME280;38802;50.198;19.796;2023-03-20T15:31:58;96095.91;;;10.58;72.79
52935;BME280;38802;50.198;19.796;2023-03-20T15:34:42;96095.83;;;10.57;73.35
52935;BME280;38802;50.198;19.796;2023-03-20T15:37:16;96098.86;;;10.54;73.35
52935;BME280;38802;50.198;19.796;2023-03-20T15:39:50;96094.91;;;10.55;73.98
52935;BME280;38802;50.198;19.796;2023-03-20T15:42:20;96097.02;;;10.51;73.79